Terminal Aerodrome Forecast
Issued by NWS

Home | Current Version | Previous Version | Text Only | Print | Product List | Glossary On
Versions: 1 2 3 4 5 6 7 8 9 10 11 12 13 14 15 16
000
FTUS43 KDTX 292023 AAA
TAFMBS
TAF AMD
KMBS 292023Z 2920/3018 21023G35KT 4SM -SHSN SCT015 OVC025
     FM292130 22020G32KT 6SM -SHRASN SCT025 OVC035
     FM300000 24015G24KT 5SM HZ BKN007 OVC015
     FM300400 23012KT P6SM OVC010
     FM301400 27012KT P6SM BKN025=

USA.gov is the U.S. government's official web portal to all federal, state and local government web resources and services.